Station Historical Data
Daily Summary for February 10, 2018 Units:  English    Metric   Both
« Previous Day
Next Day »
Daily Weekly Monthly Yearly Custom
  High: Low: Average:
Temperature: TemperatureF °F 26.2 °F 28.4 °F
Dew Point: DewpointF °F 23.4 °F 25.6 °F
Humidity: Humidity% 85% 89%
Wind Speed: WindSpeedMPHmph 0.0mph 1.7mph
Wind Gust: WindSpeedGustMPHmph - -
Wind- - ENE
Pressure: PressureIn in 30.07 in -
Precipitation: 0.00 in    
Historical Graphs
 
 
Tabular Data for February 10, 2018
Time Temperature Dew Point Pressure Wind Wind Speed Wind Gust Humidity Rainfall Rate (Hourly)
TemperatureF °F DewpointF °F PressureIn in Calm     Humidity% HourlyPrecipIn in
00:04 27.9 °F 25.3 °F 30.18 in Calm     90% 0.00 in
00:09 28.0 °F 25.4 °F 30.18 in Calm     90% 0.00 in
00:14 28.1 °F 25.5 °F 30.18 in Calm     90% 0.00 in
00:19 28.1 °F 25.5 °F 30.18 in Calm     90% 0.00 in
00:24 28.2 °F 25.6 °F 30.18 in Calm     90% 0.00 in
00:29 28.3 °F 25.7 °F 30.18 in Calm     90% 0.00 in
00:34 28.4 °F 25.8 °F 30.18 in Calm     90% 0.00 in
00:39 28.5 °F 25.9 °F 30.18 in Calm     90% 0.00 in
00:44 28.5 °F 25.9 °F 30.18 in Calm     90% 0.00 in
00:49 28.6 °F 26.3 °F 30.18 in Calm     91% 0.00 in
00:54 28.7 °F 26.4 °F 30.18 in Calm     91% 0.00 in
00:59 28.8 °F 26.5 °F 30.18 in Calm     91% 0.00 in
01:04 28.9 °F 26.6 °F 30.18 in Calm     91% 0.00 in
01:09 29.1 °F 26.8 °F 30.18 in Calm     91% 0.00 in
01:14 29.3 °F 27.0 °F 30.18 in Calm     91% 0.00 in
01:19 29.3 °F 27.0 °F 30.18 in Calm     91% 0.00 in
01:24 29.4 °F 27.1 °F 30.18 in Calm     91% 0.00 in
01:29 29.5 °F 27.2 °F 30.18 in Calm     91% 0.00 in
01:34 29.6 °F 27.3 °F 30.18 in Calm     91% 0.00 in
01:39 29.7 °F 27.4 °F 30.18 in Calm     91% 0.00 in
01:44 29.8 °F 27.5 °F 30.18 in Calm     91% 0.00 in
01:49 29.8 °F 27.5 °F 30.18 in Calm     91% 0.00 in
01:54 29.9 °F 27.6 °F 30.19 in Calm     91% 0.00 in
01:59 29.9 °F 27.6 °F 30.19 in NE 1.0 mph 4.0 mph 91% 0.00 in
02:04 29.9 °F 27.6 °F 30.19 in NE 1.0 mph 4.0 mph 91% 0.00 in
02:09 29.9 °F 27.6 °F 30.19 in NNW 1.0 mph 3.0 mph 91% 0.00 in
02:14 29.9 °F 27.6 °F 30.18 in NNW 1.0 mph 3.0 mph 91% 0.00 in
02:19 29.8 °F 27.5 °F 30.19 in Calm   3.0 mph 91% 0.00 in
02:24 29.8 °F 27.5 °F 30.18 in Calm   3.0 mph 91% 0.00 in
02:29 29.8 °F 27.5 °F 30.18 in NNW 1.0 mph 3.0 mph 91% 0.00 in
02:34 29.8 °F 27.5 °F 30.19 in Calm   3.0 mph 91% 0.00 in
02:39 29.7 °F 27.4 °F 30.19 in Calm     91% 0.00 in
02:44 29.7 °F 27.4 °F 30.19 in Calm     91% 0.00 in
02:49 29.7 °F 27.4 °F 30.19 in Calm     91% 0.00 in
02:54 29.7 °F 27.4 °F 30.18 in Calm     91% 0.00 in
02:59 29.6 °F 27.3 °F 30.18 in Calm     91% 0.00 in
03:04 29.5 °F 27.2 °F 30.18 in NNW 1.0 mph 4.0 mph 91% 0.00 in
03:09 29.5 °F 27.2 °F 30.18 in NNW 1.0 mph 4.0 mph 91% 0.00 in
03:14 29.4 °F 27.1 °F 30.18 in NNW 2.0 mph 4.0 mph 91% 0.00 in
03:19 29.4 °F 27.1 °F 30.18 in Calm   2.0 mph 91% 0.00 in
03:24 29.4 °F 27.1 °F 30.18 in Calm     91% 0.00 in
03:29 29.3 °F 27.0 °F 30.18 in Calm     91% 0.00 in
03:34 29.3 °F 27.0 °F 30.18 in Calm   1.0 mph 91% 0.00 in
03:39 29.2 °F 26.9 °F 30.18 in Calm   1.0 mph 91% 0.00 in
03:44 29.1 °F 26.8 °F 30.18 in Calm     91% 0.00 in
03:49 29.0 °F 26.7 °F 30.18 in Calm   3.0 mph 91% 0.00 in
03:54 28.7 °F 26.4 °F 30.18 in NNW 1.0 mph 3.0 mph 91% 0.00 in
03:59 28.4 °F 26.1 °F 30.17 in Calm   3.0 mph 91% 0.00 in
04:04 28.1 °F 25.8 °F 30.18 in NNW 1.0 mph 3.0 mph 91% 0.00 in
04:09 27.9 °F 25.6 °F 30.18 in Calm   2.0 mph 91% 0.00 in
04:14 27.7 °F 25.4 °F 30.17 in Calm   2.0 mph 91% 0.00 in
04:19 27.6 °F 25.3 °F 30.17 in Calm     91% 0.00 in
04:24 27.5 °F 25.2 °F 30.17 in Calm     91% 0.00 in
04:29 27.4 °F 25.1 °F 30.18 in Calm     91% 0.00 in
04:34 27.4 °F 25.1 °F 30.18 in Calm     91% 0.00 in
04:39 27.4 °F 25.1 °F 30.17 in Calm     91% 0.00 in
04:44 27.4 °F 25.1 °F 30.17 in Calm     91% 0.00 in
04:49 27.4 °F 25.1 °F 30.18 in Calm     91% 0.00 in
04:54 27.4 °F 25.1 °F 30.18 in Calm     91% 0.00 in
04:59 27.4 °F 25.1 °F 30.18 in Calm     91% 0.00 in
05:04 27.4 °F 25.1 °F 30.18 in Calm     91% 0.00 in
05:09 27.4 °F 25.1 °F 30.18 in Calm     91% 0.00 in
05:14 27.4 °F 25.1 °F 30.18 in Calm     91% 0.00 in
05:19 27.4 °F 25.1 °F 30.18 in Calm     91% 0.00 in
05:24 27.4 °F 25.1 °F 30.18 in Calm     91% 0.00 in
05:29 27.4 °F 25.1 °F 30.18 in Calm     91% 0.00 in
05:34 27.4 °F 25.1 °F 30.18 in Calm     91% 0.00 in
05:39 27.5 °F 25.2 °F 30.18 in Calm     91% 0.00 in
05:44 27.5 °F 25.2 °F 30.18 in Calm     91% 0.00 in
05:49 27.5 °F 25.2 °F 30.18 in Calm     91% 0.00 in
05:54 27.5 °F 25.2 °F 30.18 in Calm     91% 0.00 in
05:59 27.5 °F 25.2 °F 30.18 in Calm     91% 0.00 in
06:04 27.5 °F 25.2 °F 30.18 in Calm     91% 0.00 in
06:09 27.5 °F 25.2 °F 30.18 in Calm     91% 0.00 in
06:14 27.5 °F 25.2 °F 30.18 in Calm     91% 0.00 in
06:19 27.4 °F 25.1 °F 30.18 in Calm     91% 0.00 in
06:24 27.5 °F 25.2 °F 30.18 in Calm     91% 0.00 in
06:29 27.5 °F 25.2 °F 30.18 in Calm     91% 0.00 in
06:34 27.4 °F 25.1 °F 30.17 in Calm     91% 0.00 in
06:39 27.5 °F 25.2 °F 30.18 in Calm     91% 0.00 in
06:44 27.5 °F 25.2 °F 30.17 in Calm     91% 0.00 in
06:49 27.4 °F 25.1 °F 30.17 in Calm     91% 0.00 in
06:54 27.5 °F 25.2 °F 30.17 in Calm     91% 0.00 in
06:59 27.5 °F 25.2 °F 30.18 in Calm     91% 0.00 in
07:04 27.5 °F 25.2 °F 30.18 in Calm     91% 0.00 in
07:09 27.5 °F 25.2 °F 30.17 in Calm     91% 0.00 in
07:14 27.5 °F 25.2 °F 30.18 in Calm     91% 0.00 in
07:19 27.5 °F 25.2 °F 30.17 in Calm     91% 0.00 in
07:24 27.5 °F 25.2 °F 30.17 in Calm     91% 0.00 in
07:29 27.6 °F 25.3 °F 30.18 in Calm     91% 0.00 in
07:34 27.6 °F 25.3 °F 30.18 in Calm     91% 0.00 in
07:39 27.7 °F 25.4 °F 30.18 in Calm     91% 0.00 in
07:44 27.7 °F 25.4 °F 30.18 in Calm     91% 0.00 in
07:49 27.7 °F 25.4 °F 30.19 in Calm     91% 0.00 in
07:54 27.8 °F 25.5 °F 30.19 in Calm     91% 0.00 in
07:59 27.9 °F 25.6 °F 30.19 in Calm     91% 0.00 in
08:04 27.9 °F 25.6 °F 30.19 in Calm     91% 0.00 in
08:09 27.9 °F 25.6 °F 30.19 in Calm     91% 0.00 in
08:14 28.0 °F 25.7 °F 30.19 in Calm     91% 0.00 in
08:19 28.0 °F 25.7 °F 30.19 in Calm     91% 0.00 in
08:24 28.0 °F 25.7 °F 30.19 in Calm     91% 0.00 in
08:29 28.1 °F 25.8 °F 30.19 in Calm     91% 0.00 in
08:34 28.1 °F 25.8 °F 30.19 in Calm   2.0 mph 91% 0.00 in
08:39 28.1 °F 25.8 °F 30.19 in Calm   2.0 mph 91% 0.00 in
08:44 28.1 °F 25.8 °F 30.19 in Calm     91% 0.00 in
08:49 28.2 °F 25.9 °F 30.18 in Calm     91% 0.00 in
08:54 28.3 °F 26.0 °F 30.18 in Calm     91% 0.00 in
08:59 28.4 °F 26.1 °F 30.18 in Calm     91% 0.00 in
09:04 28.5 °F 26.2 °F 30.18 in Calm     91% 0.00 in
09:09 28.6 °F 26.3 °F 30.18 in Calm     91% 0.00 in
09:14 28.7 °F 26.4 °F 30.18 in Calm     91% 0.00 in
09:19 28.7 °F 26.4 °F 30.18 in Calm     91% 0.00 in
09:24 28.8 °F 26.5 °F 30.17 in Calm     91% 0.00 in
09:29 29.0 °F 26.7 °F 30.17 in Calm     91% 0.00 in
09:34 29.1 °F 26.8 °F 30.17 in Calm     91% 0.00 in
09:39 29.2 °F 26.6 °F 30.17 in Calm     90% 0.00 in
09:44 29.4 °F 26.8 °F 30.17 in Calm     90% 0.00 in
09:49 29.4 °F 26.8 °F 30.17 in Calm     90% 0.00 in
09:54 29.5 °F 26.9 °F 30.17 in Calm     90% 0.00 in
09:59 29.6 °F 27.0 °F 30.17 in Calm     90% 0.00 in
10:04 29.7 °F 27.1 °F 30.17 in Calm     90% 0.00 in
10:09 29.8 °F 27.2 °F 30.16 in Calm     90% 0.00 in
10:14 30.0 °F 27.2 °F 30.16 in Calm   3.0 mph 89% 0.00 in
10:19 30.2 °F 27.3 °F 30.15 in NNW 2.0 mph 3.0 mph 89% 0.00 in
10:24 30.4 °F 27.5 °F 30.15 in NNW 1.0 mph 4.0 mph 89% 0.00 in
10:29 30.6 °F 27.7 °F 30.15 in Calm   3.0 mph 89% 0.00 in
10:34 30.8 °F 27.7 °F 30.16 in NNW 1.0 mph 3.0 mph 88% 0.00 in
10:39 30.6 °F 27.5 °F 30.16 in NNW 1.0 mph 5.0 mph 88% 0.00 in
10:44 30.6 °F 27.5 °F 30.16 in North 2.0 mph 5.0 mph 88% 0.00 in
10:49 30.5 °F 27.1 °F 30.16 in North 2.0 mph 4.0 mph 87% 0.00 in
10:54 30.6 °F 27.2 °F 30.16 in North 2.0 mph 4.0 mph 87% 0.00 in
10:59 30.6 °F 27.2 °F 30.16 in North 1.0 mph 3.0 mph 87% 0.00 in
11:04 30.6 °F 27.2 °F 30.16 in North 2.0 mph 3.0 mph 87% 0.00 in
11:09 30.8 °F 27.4 °F 30.16 in North 2.0 mph 3.0 mph 87% 0.00 in
11:14 31.0 °F 27.6 °F 30.15 in North 2.0 mph 3.0 mph 87% 0.00 in
11:19 31.2 °F 27.8 °F 30.15 in North 3.0 mph 3.0 mph 87% 0.00 in
11:24 31.3 °F 27.6 °F 30.15 in North 3.0 mph 3.0 mph 86% 0.00 in
11:29 31.2 °F 27.5 °F 30.15 in North 2.0 mph 5.0 mph 86% 0.00 in
11:34 31.3 °F 27.6 °F 30.15 in North 3.0 mph 4.0 mph 86% 0.00 in
11:39 31.4 °F 27.7 °F 30.15 in North 2.0 mph 5.0 mph 86% 0.00 in
11:44 31.5 °F 27.5 °F 30.14 in North 2.0 mph 5.0 mph 85% 0.00 in
11:49 31.5 °F 27.5 °F 30.14 in North 3.0 mph 5.0 mph 85% 0.00 in
11:54 31.5 °F 27.5 °F 30.13 in NNE 2.0 mph 4.0 mph 85% 0.00 in
11:59 31.6 °F 27.6 °F 30.13 in NNE 1.0 mph 2.0 mph 85% 0.00 in
12:04 31.6 °F 27.6 °F 30.12 in NNE 1.0 mph 4.0 mph 85% 0.00 in
12:09 31.7 °F 27.7 °F 30.12 in NNE 2.0 mph 4.0 mph 85% 0.00 in
12:14 31.7 °F 28.0 °F 30.12 in NNE 1.0 mph 3.0 mph 86% 0.00 in
12:19 31.6 °F 27.6 °F 30.12 in NNE 2.0 mph 4.0 mph 85% 0.00 in
12:24 31.7 °F 27.7 °F 30.12 in NNE 2.0 mph 4.0 mph 85% 0.00 in
12:29 31.5 °F 27.5 °F 30.12 in NNE 1.0 mph 4.0 mph 85% 0.00 in
12:34 31.4 °F 27.4 °F 30.12 in Calm   3.0 mph 85% 0.00 in
12:39 31.2 °F 27.5 °F 30.11 in NNE 2.0 mph 4.0 mph 86% 0.00 in
12:44 31.0 °F 27.3 °F 30.12 in NNE 2.0 mph 4.0 mph 86% 0.00 in
12:49 31.1 °F 27.4 °F 30.11 in NNE 2.0 mph 4.0 mph 86% 0.00 in
12:54 31.1 °F 27.4 °F 30.11 in Calm   4.0 mph 86% 0.00 in
12:59 31.0 °F 27.3 °F 30.12 in North 3.0 mph 4.0 mph 86% 0.00 in
13:04 30.9 °F 27.2 °F 30.11 in North 1.0 mph 3.0 mph 86% 0.00 in
13:09 30.9 °F 27.2 °F 30.11 in NNE 2.0 mph 4.0 mph 86% 0.00 in
13:14 30.7 °F 27.0 °F 30.10 in NNE 3.0 mph 5.0 mph 86% 0.00 in
13:19 30.6 °F 27.2 °F 30.10 in NNE 2.0 mph 5.0 mph 87% 0.00 in
13:24 30.7 °F 27.3 °F 30.10 in NNE 2.0 mph 4.0 mph 87% 0.00 in
13:29 30.6 °F 27.2 °F 30.10 in NNE 2.0 mph 4.0 mph 87% 0.00 in
13:34 30.5 °F 27.1 °F 30.10 in NNE 2.0 mph 4.0 mph 87% 0.00 in
13:39 30.6 °F 27.2 °F 30.10 in NNE 2.0 mph 4.0 mph 87% 0.00 in
13:44 30.6 °F 27.2 °F 30.10 in NNE 2.0 mph 4.0 mph 87% 0.00 in
13:49 30.6 °F 27.2 °F 30.09 in NNE 3.0 mph 3.0 mph 87% 0.00 in
13:54 30.6 °F 27.2 °F 30.09 in NNE 3.0 mph 4.0 mph 87% 0.00 in
13:59 30.7 °F 27.3 °F 30.09 in NNE 2.0 mph 3.0 mph 87% 0.00 in
14:04 30.8 °F 27.4 °F 30.09 in NNE 4.0 mph 5.0 mph 87% 0.00 in
14:09 30.7 °F 27.3 °F 30.09 in NNE 1.0 mph 5.0 mph 87% 0.00 in
14:14 30.7 °F 27.3 °F 30.09 in North 2.0 mph 5.0 mph 87% 0.00 in
14:19 30.6 °F 27.2 °F 30.08 in North 2.0 mph 5.0 mph 87% 0.00 in
14:24 30.6 °F 27.2 °F 30.08 in North 2.0 mph 5.0 mph 87% 0.00 in
14:29 30.6 °F 27.2 °F 30.07 in North 3.0 mph 6.0 mph 87% 0.00 in
14:34 30.7 °F 27.3 °F 30.08 in NNE 3.0 mph 6.0 mph 87% 0.00 in
14:39 30.9 °F 27.5 °F 30.08 in NNE 2.0 mph 4.0 mph 87% 0.00 in
14:44 30.9 °F 27.5 °F 30.08 in NNE 2.0 mph 6.0 mph 87% 0.00 in
14:49 30.7 °F 27.3 °F 30.09 in NNE 3.0 mph 7.0 mph 87% 0.00 in
14:54 30.6 °F 27.2 °F 30.09 in NNE 4.0 mph 4.0 mph 87% 0.00 in
14:59 30.5 °F 27.1 °F 30.09 in NNE 4.0 mph 5.0 mph 87% 0.00 in
15:04 30.4 °F 27.0 °F 30.10 in NNE 3.0 mph 5.0 mph 87% 0.00 in
15:09 30.4 °F 27.0 °F 30.09 in ENE 2.0 mph 7.0 mph 87% 0.00 in
15:14 30.5 °F 27.1 °F 30.09 in NNE 2.0 mph 5.0 mph 87% 0.00 in
15:19 30.4 °F 27.0 °F 30.09 in NNE 2.0 mph 5.0 mph 87% 0.00 in
15:24 30.3 °F 26.9 °F 30.09 in NNE 3.0 mph 5.0 mph 87% 0.00 in
15:29 30.1 °F 26.7 °F 30.09 in NNE 3.0 mph 6.0 mph 87% 0.00 in
15:34 30.1 °F 26.7 °F 30.10 in NE 2.0 mph 6.0 mph 87% 0.00 in
15:39 30.0 °F 26.3 °F 30.10 in NE 3.0 mph 6.0 mph 86% 0.00 in
15:44 29.8 °F 26.1 °F 30.10 in NE 3.0 mph 6.0 mph 86% 0.00 in
15:54 29.5 °F 25.8 °F 30.10 in NE 4.0 mph 8.0 mph 86% 0.00 in
15:59 29.4 °F 25.7 °F 30.10 in NE 3.0 mph 8.0 mph 86% 0.00 in
16:04 29.3 °F 25.9 °F 30.10 in NE 2.0 mph 5.0 mph 87% 0.00 in
16:09 29.2 °F 25.8 °F 30.11 in NE 3.0 mph 5.0 mph 87% 0.00 in
16:14 29.2 °F 25.8 °F 30.11 in NE 3.0 mph 8.0 mph 87% 0.00 in
16:19 29.1 °F 25.7 °F 30.11 in NE 2.0 mph 5.0 mph 87% 0.00 in
16:24 29.0 °F 25.6 °F 30.10 in NE 4.0 mph 5.0 mph 87% 0.00 in
16:34 28.7 °F 25.3 °F 30.10 in NE 3.0 mph 7.0 mph 87% 0.00 in
16:39 28.5 °F 25.1 °F 30.10 in NNE 4.0 mph 7.0 mph 87% 0.00 in
16:44 28.4 °F 25.0 °F 30.10 in NE 4.0 mph 7.0 mph 87% 0.00 in
16:49 28.4 °F 25.3 °F 30.10 in NE 3.0 mph 8.0 mph 88% 0.00 in
16:54 28.3 °F 25.2 °F 30.10 in NE 3.0 mph 7.0 mph 88% 0.00 in
16:59 28.3 °F 24.9 °F 30.10 in NE 4.0 mph 10.0 mph 87% 0.00 in
17:04 28.1 °F 25.0 °F 30.10 in NNE 3.0 mph 7.0 mph 88% 0.00 in
17:09 28.0 °F 24.9 °F 30.10 in ENE 10.0 mph 10.0 mph 88% 0.00 in
17:14 27.9 °F 24.8 °F 30.11 in NNE 3.0 mph 10.0 mph 88% 0.00 in
17:19 27.9 °F 24.8 °F 30.12 in NE 4.0 mph 7.0 mph 88% 0.00 in
17:24 27.8 °F 24.7 °F 30.12 in ENE 3.0 mph 9.0 mph 88% 0.00 in
17:29 27.7 °F 24.6 °F 30.12 in ENE 4.0 mph 8.0 mph 88% 0.00 in
17:34 27.6 °F 24.5 °F 30.12 in NE 4.0 mph 8.0 mph 88% 0.00 in
17:39 27.6 °F 24.5 °F 30.12 in NE 4.0 mph 8.0 mph 88% 0.00 in
17:44 27.5 °F 24.4 °F 30.12 in NE 4.0 mph 8.0 mph 88% 0.00 in
17:49 27.4 °F 24.3 °F 30.12 in NE 4.0 mph 8.0 mph 88% 0.00 in
17:54 27.4 °F 24.3 °F 30.13 in NE 4.0 mph 8.0 mph 88% 0.00 in
17:59 27.4 °F 24.3 °F 30.13 in NE 5.0 mph 7.0 mph 88% 0.00 in
18:04 27.3 °F 24.2 °F 30.14 in NE 4.0 mph 9.0 mph 88% 0.00 in
18:09 27.2 °F 24.1 °F 30.14 in NE 5.0 mph 13.0 mph 88% 0.00 in
18:14 27.2 °F 24.1 °F 30.14 in NE 6.0 mph 10.0 mph 88% 0.00 in
18:19 27.1 °F 24.0 °F 30.14 in NE 6.0 mph 8.0 mph 88% 0.00 in
18:24 27.1 °F 24.0 °F 30.14 in NE 5.0 mph 6.0 mph 88% 0.00 in
18:29 27.0 °F 23.9 °F 30.15 in NE 5.0 mph 10.0 mph 88% 0.00 in
18:34 27.0 °F 23.9 °F 30.15 in NE 3.0 mph 10.0 mph 88% 0.00 in
18:39 27.0 °F 23.9 °F 30.14 in NE 5.0 mph 10.0 mph 88% 0.00 in
18:44 26.9 °F 24.1 °F 30.14 in NE 4.0 mph 9.0 mph 89% 0.00 in
18:49 27.0 °F 24.2 °F 30.14 in NE 4.0 mph 8.0 mph 89% 0.00 in
18:54 27.0 °F 24.2 °F 30.15 in NE 4.0 mph 10.0 mph 89% 0.00 in
18:59 27.0 °F 24.2 °F 30.15 in NE 3.0 mph 8.0 mph 89% 0.00 in
19:04 27.0 °F 24.2 °F 30.15 in NE 3.0 mph 9.0 mph 89% 0.00 in
19:09 26.9 °F 24.1 °F 30.16 in NE 3.0 mph 9.0 mph 89% 0.00 in
19:14 26.9 °F 24.1 °F 30.15 in NE 3.0 mph 6.0 mph 89% 0.00 in
19:19 26.9 °F 24.1 °F 30.15 in NE 3.0 mph 6.0 mph 89% 0.00 in
19:24 26.9 °F 24.1 °F 30.15 in NE 2.0 mph 5.0 mph 89% 0.00 in
19:29 26.9 °F 24.1 °F 30.15 in NE 3.0 mph 5.0 mph 89% 0.00 in
19:34 26.9 °F 24.1 °F 30.15 in NE 3.0 mph 5.0 mph 89% 0.00 in
19:39 26.8 °F 24.0 °F 30.15 in NE 3.0 mph 8.0 mph 89% 0.00 in
19:44 26.8 °F 24.0 °F 30.15 in NE 4.0 mph 8.0 mph 89% 0.00 in
19:49 26.9 °F 24.1 °F 30.15 in NE 4.0 mph 8.0 mph 89% 0.00 in
19:54 26.8 °F 24.0 °F 30.15 in NE 4.0 mph 8.0 mph 89% 0.00 in
19:59 26.9 °F 24.1 °F 30.15 in NE 3.0 mph 5.0 mph 89% 0.00 in
20:04 26.9 °F 24.1 °F 30.15 in NE 3.0 mph 9.0 mph 89% 0.00 in
20:09 26.8 °F 24.0 °F 30.15 in NE 3.0 mph 9.0 mph 89% 0.00 in
20:14 26.8 °F 24.0 °F 30.15 in NE 3.0 mph 9.0 mph 89% 0.00 in
20:19 26.8 °F 24.0 °F 30.15 in NE 4.0 mph 9.0 mph 89% 0.00 in
20:24 26.8 °F 24.0 °F 30.15 in NE 3.0 mph 7.0 mph 89% 0.00 in
20:29 26.7 °F 23.9 °F 30.14 in NE 4.0 mph 6.0 mph 89% 0.00 in
20:34 26.7 °F 23.9 °F 30.14 in NE 2.0 mph 7.0 mph 89% 0.00 in
20:39 26.7 °F 23.9 °F 30.14 in NE 3.0 mph 6.0 mph 89% 0.00 in
20:44 26.7 °F 23.9 °F 30.14 in NE 3.0 mph 7.0 mph 89% 0.00 in
20:49 26.7 °F 23.9 °F 30.13 in ENE 5.0 mph 8.0 mph 89% 0.00 in
20:54 26.6 °F 23.8 °F 30.13 in NE 4.0 mph 8.0 mph 89% 0.00 in
20:59 26.6 °F 23.8 °F 30.14 in NE 3.0 mph 8.0 mph 89% 0.00 in
21:04 26.6 °F 23.8 °F 30.14 in NE 4.0 mph 9.0 mph 89% 0.00 in
21:09 26.6 °F 23.8 °F 30.15 in NE 5.0 mph 7.0 mph 89% 0.00 in
21:14 26.5 °F 23.7 °F 30.15 in NNE 2.0 mph 6.0 mph 89% 0.00 in
21:19 26.5 °F 23.7 °F 30.15 in NE 3.0 mph 8.0 mph 89% 0.00 in
21:24 26.5 °F 23.7 °F 30.15 in NE 4.0 mph 8.0 mph 89% 0.00 in
21:29 26.5 °F 23.7 °F 30.15 in NE 4.0 mph 9.0 mph 89% 0.00 in
21:34 26.5 °F 23.7 °F 30.14 in NE 3.0 mph 7.0 mph 89% 0.00 in
21:39 26.4 °F 23.6 °F 30.14 in NE 5.0 mph 7.0 mph 89% 0.00 in
21:44 26.5 °F 23.7 °F 30.14 in NE 5.0 mph 6.0 mph 89% 0.00 in
21:49 26.5 °F 23.7 °F 30.15 in NE 3.0 mph 7.0 mph 89% 0.00 in
21:54 26.4 °F 23.6 °F 30.14 in NE 3.0 mph 7.0 mph 89% 0.00 in
21:59 26.4 °F 23.6 °F 30.15 in NE 3.0 mph 6.0 mph 89% 0.00 in
22:04 26.4 °F 23.6 °F 30.14 in NE 2.0 mph 8.0 mph 89% 0.00 in
22:09 26.4 °F 23.6 °F 30.15 in NE 2.0 mph 7.0 mph 89% 0.00 in
22:14 26.4 °F 23.6 °F 30.15 in NE 3.0 mph 7.0 mph 89% 0.00 in
22:19 26.4 °F 23.6 °F 30.15 in NE 3.0 mph 5.0 mph 89% 0.00 in
22:24 26.5 °F 23.7 °F 30.15 in NE 3.0 mph 6.0 mph 89% 0.00 in
22:29 26.5 °F 23.7 °F 30.16 in NE 3.0 mph 6.0 mph 89% 0.00 in
22:34 26.5 °F 23.7 °F 30.16 in NE 2.0 mph 5.0 mph 89% 0.00 in
22:39 26.5 °F 23.7 °F 30.16 in NE 2.0 mph 6.0 mph 89% 0.00 in
22:44 26.4 °F 23.6 °F 30.16 in NE 3.0 mph 6.0 mph 89% 0.00 in
22:49 26.5 °F 23.7 °F 30.16 in NE 6.0 mph 6.0 mph 89% 0.00 in
22:54 26.4 °F 23.6 °F 30.15 in NE 3.0 mph 6.0 mph 89% 0.00 in
22:59 26.4 °F 23.6 °F 30.16 in NE 3.0 mph 6.0 mph 89% 0.00 in
23:04 26.4 °F 23.6 °F 30.15 in North 3.0 mph 5.0 mph 89% 0.00 in
23:09 26.4 °F 23.6 °F 30.15 in NNE 3.0 mph 5.0 mph 89% 0.00 in
23:14 26.4 °F 23.6 °F 30.15 in NE 2.0 mph 6.0 mph 89% 0.00 in
23:19 26.4 °F 23.6 °F 30.15 in NNE 2.0 mph 5.0 mph 89% 0.00 in
23:24 26.3 °F 23.5 °F 30.15 in NE 2.0 mph 6.0 mph 89% 0.00 in
23:29 26.4 °F 23.6 °F 30.15 in NNE 3.0 mph 4.0 mph 89% 0.00 in
23:34 26.3 °F 23.5 °F 30.15 in NE 3.0 mph 8.0 mph 89% 0.00 in
23:39 26.3 °F 23.5 °F 30.15 in NE 3.0 mph 8.0 mph 89% 0.00 in
23:44 26.3 °F 23.5 °F 30.15 in NE 3.0 mph 7.0 mph 89% 0.00 in
23:49 26.3 °F 23.5 °F 30.14 in NE 4.0 mph 7.0 mph 89% 0.00 in
23:54 26.3 °F 23.5 °F 30.14 in NE 4.0 mph 9.0 mph 89% 0.00 in
23:59 26.2 °F 23.4 °F 30.14 in NE 5.0 mph 9.0 mph 89% 0.00 in
Buffalo, New York, USA
Compliments of Weather Underground - 2.5 mb